createdAt,value
2022-08-22T00:00:49.323Z,17.60
2022-08-22T00:03:04.653Z,18.00
2022-08-22T00:03:16.084Z,18.00
2022-08-22T00:04:08.251Z,17.60
2022-08-22T00:07:23.384Z,17.50
2022-08-22T00:14:03.425Z,17.40
2022-08-22T00:17:25.128Z,17.40
2022-08-22T00:20:45.895Z,17.40
2022-08-22T00:27:18.770Z,17.40
2022-08-22T00:34:04.852Z,17.30
2022-08-22T00:37:19.254Z,17.40
2022-08-22T00:40:43.597Z,17.30
2022-08-22T00:44:09.747Z,17.30
2022-08-22T00:48:01.868Z,17.30
2022-08-22T00:51:30.837Z,17.30
2022-08-22T00:55:16.114Z,17.30
2022-08-22T01:01:23.668Z,17.30
2022-08-22T01:11:59.194Z,17.40
2022-08-22T01:14:54.240Z,17.40
2022-08-22T01:30:07.914Z,17.40
2022-08-22T01:33:35.205Z,17.40
2022-08-22T01:40:54.031Z,17.40
2022-08-22T01:44:16.902Z,17.40
2022-08-22T01:47:29.049Z,17.30
2022-08-22T01:53:42.539Z,17.20
2022-08-22T01:56:50.624Z,17.20
2022-08-22T01:59:43.340Z,17.20
2022-08-22T02:03:01.511Z,17.20
2022-08-22T02:06:14.659Z,17.10
2022-08-22T02:09:43.148Z,17.00
2022-08-22T02:13:01.113Z,17.00
2022-08-22T02:16:13.682Z,17.00
2022-08-22T02:19:32.290Z,17.00
2022-08-22T02:22:50.293Z,16.90
2022-08-22T02:26:11.387Z,16.90
2022-08-22T02:29:02.667Z,16.90
2022-08-22T02:32:20.229Z,16.90
2022-08-22T02:39:04.704Z,16.80
2022-08-22T02:42:22.629Z,16.70
2022-08-22T02:45:36.188Z,16.70
2022-08-22T02:48:57.407Z,16.70
2022-08-22T02:52:11.840Z,16.70
2022-08-22T02:58:22.165Z,16.70
2022-08-22T03:01:37.711Z,16.60
2022-08-22T03:04:55.650Z,16.50
2022-08-22T03:11:04.662Z,16.50
2022-08-22T03:14:15.563Z,16.40
2022-08-22T03:26:14.766Z,16.40
2022-08-22T03:29:39.710Z,16.40
2022-08-22T03:32:51.087Z,16.30
2022-08-22T03:39:48.413Z,16.30
2022-08-22T03:43:34.726Z,16.30
2022-08-22T03:47:09.526Z,16.20
2022-08-22T03:59:10.118Z,16.00
2022-08-22T04:02:58.733Z,16.10
2022-08-22T04:06:25.857Z,16.10
2022-08-22T04:09:54.416Z,16.10
2022-08-22T04:13:18.091Z,16.10
2022-08-22T04:17:09.007Z,16.00
2022-08-22T04:27:17.580Z,15.90
2022-08-22T04:30:34.333Z,15.90
2022-08-22T04:33:47.702Z,16.00
2022-08-22T04:36:42.543Z,15.90
2022-08-22T04:39:54.040Z,15.80
2022-08-22T04:45:58.958Z,15.70
2022-08-22T04:49:16.440Z,15.70
2022-08-22T04:56:03.016Z,15.70
2022-08-22T04:59:19.328Z,15.70
2022-08-22T05:02:11.296Z,15.80
2022-08-22T05:05:28.095Z,15.90
2022-08-22T05:08:41.331Z,15.90
2022-08-22T05:11:32.884Z,15.90
2022-08-22T05:14:45.767Z,15.90
2022-08-22T05:17:35.348Z,15.90
2022-08-22T05:23:36.701Z,15.90
2022-08-22T05:30:17.435Z,15.90
2022-08-22T05:37:31.163Z,15.90
2022-08-22T05:40:23.504Z,16.00
2022-08-22T05:43:37.776Z,16.10
2022-08-22T05:46:55.034Z,16.10
2022-08-22T05:50:11.033Z,16.20
2022-08-22T05:53:06.531Z,16.30
2022-08-22T05:56:27.767Z,16.40
2022-08-22T05:59:37.545Z,16.50
2022-08-22T06:02:58.874Z,16.60
2022-08-22T06:09:06.389Z,16.70
2022-08-22T06:12:22.210Z,16.90
2022-08-22T06:15:36.169Z,16.90
2022-08-22T06:18:28.302Z,17.10
2022-08-22T06:21:42.151Z,17.20
2022-08-22T06:28:18.882Z,17.60
2022-08-22T06:31:09.649Z,17.80
2022-08-22T06:34:25.539Z,18.00
2022-08-22T06:38:29.572Z,18.20
2022-08-22T06:49:15.799Z,19.20
2022-08-22T06:52:26.609Z,19.80
2022-08-22T06:55:18.137Z,20.00
2022-08-22T06:58:12.935Z,20.00
2022-08-22T07:01:25.885Z,19.90
2022-08-22T07:24:33.616Z,20.20
2022-08-22T07:31:35.444Z,20.50
2022-08-22T07:35:03.754Z,20.50
2022-08-22T07:38:09.777Z,20.70
2022-08-22T07:41:06.516Z,20.80
2022-08-22T07:44:01.498Z,20.90
2022-08-22T07:46:59.174Z,21.00
2022-08-22T07:49:55.128Z,21.00
2022-08-22T07:52:46.608Z,21.20
2022-08-22T07:55:42.243Z,21.30
2022-08-22T07:58:42.139Z,21.40
2022-08-22T08:01:32.978Z,21.70
2022-08-22T08:04:33.452Z,21.90
2022-08-22T08:07:45.348Z,21.90
2022-08-22T08:10:46.100Z,21.90
2022-08-22T08:13:48.466Z,21.90
2022-08-22T08:17:13.576Z,21.90
2022-08-22T08:20:25.822Z,21.80
2022-08-22T08:23:23.374Z,21.80
2022-08-22T08:26:23.595Z,21.80
2022-08-22T08:29:27.658Z,21.80
2022-08-22T08:32:17.320Z,21.90
2022-08-22T08:35:10.655Z,22.10
2022-08-22T08:38:09.201Z,22.20
2022-08-22T08:41:33.990Z,22.30
2022-08-22T08:45:04.471Z,22.60
2022-08-22T08:48:29.225Z,22.90
2022-08-22T08:51:47.488Z,23.20
2022-08-22T08:55:02.500Z,23.50
2022-08-22T08:58:33.096Z,23.70
2022-08-22T09:02:09.243Z,24.10
2022-08-22T09:05:52.131Z,24.10
2022-08-22T09:09:04.276Z,24.10
2022-08-22T09:12:56.461Z,24.30
2022-08-22T09:16:05.584Z,24.50
2022-08-22T09:19:30.564Z,24.50
2022-08-22T09:22:50.133Z,24.60
2022-08-22T09:25:46.151Z,24.90
2022-08-22T09:28:40.298Z,25.30
2022-08-22T09:31:51.497Z,25.40
2022-08-22T09:34:56.725Z,25.60
2022-08-22T09:38:01.431Z,25.80
2022-08-22T09:40:58.717Z,25.80
2022-08-22T09:43:59.486Z,25.70
2022-08-22T09:46:59.009Z,25.60
2022-08-22T09:49:57.204Z,25.70
2022-08-22T09:52:58.413Z,25.90
2022-08-22T09:55:57.166Z,26.20
2022-08-22T09:58:54.143Z,26.20
2022-08-22T10:01:54.819Z,26.50
2022-08-22T10:04:58.986Z,26.70
2022-08-22T10:08:01.801Z,27.00
2022-08-22T10:11:07.453Z,26.90
2022-08-22T10:14:03.704Z,27.10
2022-08-22T10:17:03.656Z,27.00
2022-08-22T10:19:58.956Z,26.80
2022-08-22T10:22:59.695Z,26.80
2022-08-22T10:25:52.904Z,26.80
2022-08-22T10:28:52.619Z,26.60
2022-08-22T10:31:58.615Z,26.60
2022-08-22T10:34:53.834Z,26.70
2022-08-22T10:37:54.760Z,26.50
2022-08-22T10:40:52.131Z,26.20
2022-08-22T10:43:49.495Z,26.00
2022-08-22T10:46:54.323Z,26.00
2022-08-22T10:49:51.142Z,26.10
2022-08-22T10:52:49.327Z,26.30
2022-08-22T10:55:43.259Z,26.30
2022-08-22T11:01:51.598Z,25.90
2022-08-22T11:04:58.931Z,25.60
2022-08-22T11:12:04.424Z,25.70
2022-08-22T11:15:13.106Z,25.50
2022-08-22T11:18:21.778Z,25.50
2022-08-22T11:21:21.560Z,25.80
2022-08-22T11:24:35.434Z,26.00
2022-08-22T11:27:39.506Z,25.80
2022-08-22T11:30:36.468Z,25.70
2022-08-22T11:33:46.991Z,25.90
2022-08-22T11:36:40.992Z,26.40
2022-08-22T11:39:36.286Z,26.40
2022-08-22T11:42:34.638Z,26.10
2022-08-22T11:45:29.278Z,26.00
2022-08-22T11:48:25.558Z,25.80
2022-08-22T11:51:24.994Z,25.60
2022-08-22T11:54:31.177Z,25.40
2022-08-22T11:57:27.994Z,25.50
2022-08-22T12:00:34.664Z,25.50
2022-08-22T12:03:36.068Z,25.30
2022-08-22T12:06:45.759Z,25.50
2022-08-22T12:09:47.784Z,25.80
2022-08-22T12:12:55.501Z,26.20
2022-08-22T12:15:53.842Z,26.60
2022-08-22T12:18:52.887Z,26.90
2022-08-22T12:22:37.353Z,27.30
2022-08-22T12:25:44.685Z,27.60
2022-08-22T12:28:40.084Z,27.70
2022-08-22T12:31:39.924Z,27.20
2022-08-22T12:34:38.001Z,26.30
2022-08-22T12:37:52.184Z,26.40
2022-08-22T12:40:55.114Z,26.20
2022-08-22T12:43:55.396Z,26.20
2022-08-22T12:47:02.289Z,26.70
2022-08-22T12:50:13.168Z,27.20
2022-08-22T12:53:32.281Z,27.80
2022-08-22T12:56:33.355Z,27.60
2022-08-22T12:59:27.425Z,26.80
2022-08-22T13:02:20.458Z,26.30
2022-08-22T13:05:19.865Z,26.00
2022-08-22T13:08:17.370Z,26.40
2022-08-22T13:11:16.759Z,26.70
2022-08-22T13:14:18.229Z,26.40
2022-08-22T13:17:25.179Z,26.30
2022-08-22T13:20:26.731Z,26.30
2022-08-22T13:23:21.514Z,26.60
2022-08-22T13:26:24.386Z,26.60
2022-08-22T13:29:27.416Z,26.40
2022-08-22T13:32:36.912Z,26.30
2022-08-22T13:35:35.454Z,26.10
2022-08-22T13:38:27.896Z,26.40
2022-08-22T13:41:23.575Z,27.00
2022-08-22T13:44:19.040Z,27.50
2022-08-22T13:47:14.700Z,27.60
2022-08-22T13:50:12.567Z,27.60
2022-08-22T13:53:12.427Z,27.80
2022-08-22T13:56:15.848Z,27.90
2022-08-22T13:59:25.296Z,28.00
2022-08-22T14:02:54.932Z,28.00
2022-08-22T14:05:47.692Z,28.20
2022-08-22T14:08:45.830Z,28.10
2022-08-22T14:11:45.053Z,27.80
2022-08-22T14:14:36.138Z,28.10
2022-08-22T14:17:30.197Z,28.90
2022-08-22T14:20:32.229Z,29.10
2022-08-22T14:23:29.361Z,29.50
2022-08-22T14:26:32.814Z,29.70
2022-08-22T14:29:31.695Z,29.20
2022-08-22T14:32:47.571Z,28.80
2022-08-22T14:35:43.058Z,28.50
2022-08-22T14:38:39.806Z,28.20
2022-08-22T14:41:56.135Z,28.20
2022-08-22T14:44:59.377Z,28.30
2022-08-22T14:47:55.543Z,28.40
2022-08-22T14:51:10.644Z,28.40
2022-08-22T14:54:14.158Z,28.40
2022-08-22T14:57:20.058Z,28.40
2022-08-22T15:00:13.139Z,28.40
2022-08-22T15:03:24.676Z,28.10
2022-08-22T15:06:17.047Z,27.70
2022-08-22T15:09:25.624Z,27.40
2022-08-22T15:12:27.594Z,27.10
2022-08-22T15:15:30.526Z,26.80
2022-08-22T15:18:33.683Z,26.70
2022-08-22T15:21:26.359Z,26.60
2022-08-22T15:24:16.206Z,26.40
2022-08-22T15:27:06.942Z,26.30
2022-08-22T15:29:59.633Z,26.40
2022-08-22T15:32:49.241Z,26.40
2022-08-22T15:35:39.052Z,26.20
2022-08-22T15:38:31.873Z,26.00
2022-08-22T15:41:38.173Z,25.90
2022-08-22T15:44:33.510Z,25.90
2022-08-22T15:47:36.513Z,25.90
2022-08-22T15:50:35.988Z,25.90
2022-08-22T15:53:27.923Z,26.00
2022-08-22T15:56:27.135Z,26.10
2022-08-22T15:59:53.745Z,26.20
2022-08-22T16:02:58.480Z,26.30
2022-08-22T16:05:55.708Z,26.20
2022-08-22T16:08:52.343Z,26.20
2022-08-22T16:11:43.478Z,26.20
2022-08-22T16:14:49.954Z,26.20
2022-08-22T16:17:47.170Z,26.20
2022-08-22T16:20:54.298Z,26.10
2022-08-22T16:24:28.482Z,25.90
2022-08-22T16:27:21.979Z,25.80
2022-08-22T16:30:16.625Z,25.80
2022-08-22T16:33:18.522Z,25.80
2022-08-22T16:36:42.285Z,25.80
2022-08-22T16:39:40.190Z,25.90
2022-08-22T16:42:37.896Z,26.00
2022-08-22T16:45:35.969Z,25.90
2022-08-22T16:48:35.651Z,25.90
2022-08-22T16:51:24.365Z,26.00
2022-08-22T16:54:14.573Z,25.90
2022-08-22T16:57:14.567Z,25.90
2022-08-22T17:00:12.390Z,26.00
2022-08-22T17:03:13.552Z,25.90
2022-08-22T17:06:17.692Z,25.90
2022-08-22T17:09:31.583Z,25.90
2022-08-22T17:12:32.957Z,25.70
2022-08-22T17:15:30.640Z,25.70
2022-08-22T17:18:36.592Z,25.60
2022-08-22T17:21:31.057Z,25.60
2022-08-22T17:24:33.836Z,25.40
2022-08-22T17:27:32.027Z,25.30
2022-08-22T17:30:27.424Z,25.30
2022-08-22T17:33:27.815Z,25.20
2022-08-22T17:36:26.590Z,25.20
2022-08-22T17:39:32.378Z,25.10
2022-08-22T17:42:42.309Z,25.00
2022-08-22T17:45:45.467Z,24.90
2022-08-22T17:48:41.911Z,24.90
2022-08-22T17:51:34.447Z,24.80
2022-08-22T17:54:31.536Z,24.70
2022-08-22T17:57:30.957Z,24.60
2022-08-22T18:00:28.449Z,24.50
2022-08-22T18:03:23.890Z,24.50
2022-08-22T18:06:20.046Z,24.40
2022-08-22T18:09:20.314Z,24.40
2022-08-22T18:12:22.260Z,24.40
2022-08-22T18:15:20.987Z,24.40
2022-08-22T18:18:20.781Z,24.30
2022-08-22T18:21:26.266Z,24.40
2022-08-22T18:24:21.676Z,24.30
2022-08-22T18:27:29.686Z,24.30
2022-08-22T18:30:27.688Z,24.30
2022-08-22T18:33:23.422Z,24.20
2022-08-22T18:36:21.351Z,24.20
2022-08-22T18:39:25.063Z,24.20
2022-08-22T18:42:25.533Z,24.20
2022-08-22T18:45:16.665Z,24.10
2022-08-22T18:48:07.438Z,24.10
2022-08-22T18:51:22.526Z,24.10
2022-08-22T18:54:36.797Z,24.10
2022-08-22T18:57:45.718Z,24.10
2022-08-22T19:00:53.990Z,24.10
2022-08-22T19:04:00.932Z,24.10
2022-08-22T19:07:10.330Z,24.10
2022-08-22T19:10:28.033Z,23.90
2022-08-22T19:13:40.222Z,23.80
2022-08-22T19:16:49.471Z,23.70
2022-08-22T19:20:14.349Z,23.70
2022-08-22T19:23:36.123Z,23.70
2022-08-22T19:26:30.182Z,23.70
2022-08-22T19:30:01.859Z,23.80
2022-08-22T19:33:05.196Z,23.80
2022-08-22T19:36:10.939Z,23.80
2022-08-22T19:39:09.025Z,23.90
2022-08-22T19:41:58.609Z,23.90
2022-08-22T19:44:49.477Z,23.90
2022-08-22T19:47:41.360Z,23.90
2022-08-22T19:50:35.375Z,23.90
2022-08-22T19:53:43.130Z,23.90
2022-08-22T19:56:41.958Z,23.80
2022-08-22T19:59:50.996Z,23.80
2022-08-22T20:02:53.391Z,23.80
2022-08-22T20:05:56.961Z,23.80
2022-08-22T20:09:03.916Z,23.90
2022-08-22T20:12:04.474Z,23.90
2022-08-22T20:14:53.497Z,23.90
2022-08-22T20:18:11.563Z,23.80
2022-08-22T20:21:01.806Z,23.80
2022-08-22T20:23:51.445Z,23.80
2022-08-22T20:26:57.630Z,23.80
2022-08-22T20:29:55.547Z,23.90
2022-08-22T20:32:47.011Z,23.80
2022-08-22T20:35:42.844Z,23.80
2022-08-22T20:38:37.179Z,23.80
2022-08-22T20:41:31.860Z,23.80
2022-08-22T20:44:23.977Z,23.70
2022-08-22T20:47:21.203Z,23.60
2022-08-22T20:50:12.762Z,23.60
2022-08-22T20:53:12.771Z,23.70
2022-08-22T20:56:03.361Z,23.70
2022-08-22T20:58:52.044Z,23.50
2022-08-22T21:01:40.925Z,23.50
2022-08-22T21:04:43.969Z,23.50
2022-08-22T21:07:35.544Z,23.40
2022-08-22T21:10:59.040Z,23.40
2022-08-22T21:13:59.391Z,23.30
2022-08-22T21:16:48.298Z,23.20
2022-08-22T21:19:38.041Z,23.20
2022-08-22T21:22:30.035Z,23.20
2022-08-22T21:25:21.057Z,23.10
2022-08-22T21:28:27.294Z,23.00
2022-08-22T21:31:22.122Z,22.90
2022-08-22T21:34:15.401Z,22.90
2022-08-22T21:37:11.979Z,22.90
2022-08-22T21:40:08.403Z,22.80
2022-08-22T21:43:07.591Z,22.70
2022-08-22T21:45:56.360Z,22.70
2022-08-22T21:49:00.441Z,22.60
2022-08-22T21:51:51.237Z,22.50
2022-08-22T21:54:41.217Z,22.50
2022-08-22T21:57:37.262Z,22.50
2022-08-22T22:01:00.363Z,22.50
2022-08-22T22:03:50.744Z,22.50
2022-08-22T22:06:40.926Z,22.50
2022-08-22T22:09:29.649Z,22.40
2022-08-22T22:12:18.450Z,22.40
2022-08-22T22:15:08.089Z,22.40
2022-08-22T22:17:57.299Z,22.40
2022-08-22T22:20:49.524Z,22.50
2022-08-22T22:23:38.207Z,22.40
2022-08-22T22:26:28.797Z,22.40
2022-08-22T22:29:17.829Z,22.30
2022-08-22T22:32:06.937Z,22.30
2022-08-22T22:34:55.659Z,22.20
2022-08-22T22:37:47.008Z,22.20
2022-08-22T22:40:36.340Z,22.20
2022-08-22T22:43:25.437Z,22.20
2022-08-22T22:46:14.530Z,22.20
2022-08-22T22:49:03.236Z,22.20
2022-08-22T22:51:58.133Z,22.10
2022-08-22T22:54:48.397Z,22.00
2022-08-22T22:57:41.449Z,22.10
2022-08-22T23:00:34.152Z,22.00
2022-08-22T23:03:23.034Z,22.00
2022-08-22T23:06:13.386Z,22.00
2022-08-22T23:09:02.026Z,21.90
2022-08-22T23:11:52.208Z,21.80
2022-08-22T23:14:40.952Z,21.70
2022-08-22T23:17:29.665Z,21.70
2022-08-22T23:20:18.416Z,21.60
2022-08-22T23:23:07.141Z,21.50
2022-08-22T23:25:55.992Z,21.50
2022-08-22T23:28:46.602Z,21.40
2022-08-22T23:31:37.137Z,21.40
2022-08-22T23:34:27.929Z,21.40
2022-08-22T23:42:43.492Z,21.20
2022-08-22T23:45:33.599Z,21.10
2022-08-22T23:48:22.303Z,21.00
2022-08-22T23:51:11.531Z,21.10
2022-08-22T23:54:03.608Z,21.10
2022-08-22T23:56:54.685Z,21.10
2022-08-22T23:59:46.546Z,21.10
